| Record Date MM/DD/YYYY | Record Julian Date NNN day of the year | Air Temperature Max (Degrees Fahrenheit F) | Time Max Air Temperature HH:MM:SS This is the time of max air temperature standard time. | Air Temperature Min (Degrees Fahrenheit F) | Time Min Air Temperature HH:MM:SS This is the time of min air temperature standard time. | Air Temperature Observed (Degrees Fahrenheit F) This is an instantaneous reading for air temperature at 7:00:00 standard time. | Relative Humidity Max (Percent) | Time Max Relative Humidity HH:MM:SS This is the time of max relative humidity standard time. | Relative Humidity Min (Percent) | Time Min Relative Humidity HH:MM:SS This is the time of min relative humidity standard time. | Relative Humidity Observed (Percent) This is an instantaneous reading at 7:00:00 standard time. | Precipitation (Inches n.nn) total rain fall that occurred for the day. | Pan Evaporation (Inches n.nn) total evaporation that occured for the day. | Wind Run (Miles) Wind travel for the day. | Wind Speed (Miles Per Hour) Resultant / Average speed for the day. | Wind Direction (Degrees) Resultant Direction for the day | Solar Radiation (Langley's) that occurred for the day. | Soil Temperature Max at 2 inch depth (Degrees Fahrenheit F) that occurred during the day. | Time Max Soil temperature at 2 inches HH:MM:SS This is the time of max 2 inch soil temperature standard time. | Soil Temperature Min at 2 inch depth (Degrees Fahrenheit F) that occurred during the day. | Time Min Soil temperature at 2 inches HH:MM:SS This is the time of min 2 inch soil temperature standard time. | Soil Temperature Observed at 2 inch depth (Degrees Fahrenheit F) This is an instantaneous reading 2 inch soil temperature at 7:00:00 standard time. | Soil Temperature Max at 4 inch depth (Degrees Fahrenheit F) that occurred during the day. | Time Max Soil temperature at 4 inches HH:MM:SS This is the time of max 4 inch soil temperature standard time. | Soil Temperature Min at 4 inch depth (Degrees Fahrenheit F) that occurred during the day. | Time Min Soil temperature at 4 inches HH:MM:SS This is the time of min 4 inch soil temperature standard time. | Soil Temperature Observed at 4 inch depth (Degrees Fahrenheit F) This is an instantaneous reading 4 inch soil temperature at 7:00:00 standard time. | DD50 Degree Days 50 Fahrenheit. | Adjusted DD50 Degree Days 50 Fahrenheit adjusted for latitude. | DD60 Degree Days 60 Fahrenheit. |
|---|---|---|---|---|---|---|---|---|---|---|---|---|---|---|---|---|---|---|---|---|---|---|---|---|---|---|---|---|---|---|
| 04/02/2026 | 92 | 85 | 15:30:05 | 69 | 3:40:02 | 70 | 85 | 4:45:01 | 48 | 13:11:00 | 82 | 0 | 27 | 26.95 | 17 | |||||||||||||||
| 04/03/2026 | 93 | 89 | 13:24:00 | 68 | 2:26:05 | 69 | 87 | 6:35:02 | 45 | 15:13:00 | 86 | 0 | 28.5 | 26.98 | 18.5 | |||||||||||||||
| 04/04/2026 | 94 | 81 | 14:11:05 | 59 | 23:53:05 | 71 | 92 | 20:37:05 | 59 | 14:18:02 | 80 | 0 | 20 | 21.01 | 10 | |||||||||||||||
| 04/05/2026 | 95 | 65 | 15:17:04 | 52 | 6:01:05 | 53 | 84 | 0:43:01 | 44 | 16:11:00 | 70 | 0.01 | 8.5 | 9.54 | 0 | |||||||||||||||
| 04/06/2026 | 96 | 71 | 15:05:00 | 45 | 5:08:03 | 52 | 84 | 5:55:01 | 26 | 14:52:01 | 66 | 0 | 8 | 9.08 | 0 | |||||||||||||||
| 04/07/2026 | 97 | 78 | 14:08:05 | 45 | 3:23:05 | 55 | 85 | 3:26:02 | 28 | 13:32:01 | 66 | 0 | 11.5 | 12.61 | 1.5 | |||||||||||||||
| 04/08/2026 | 98 | 81 | 13:09:05 | 54 | 5:36:00 | 59 | 73 | 6:25:03 | 24 | 14:26:00 | 62 | 0 | 17.5 | 18.64 | 7.5 | |||||||||||||||
| 04/09/2026 | 99 | 81 | 15:50:02 | 54 | 5:06:03 | 61 | 74 | 5:07:02 | 34 | 15:07:02 | 61 | 0 | 17.5 | 18.67 | 7.5 | |||||||||||||||
| 04/10/2026 | 100 | 84 | 13:44:01 | 55 | 5:51:00 | 62 | 81 | 5:57:03 | 31 | 15:46:02 | 71 | 0 | 19.5 | 20.7 | 9.5 | |||||||||||||||
| 04/11/2026 | 101 | 87 | 15:33:01 | 58 | 5:41:01 | 65 | 83 | 5:46:04 | 34 | 15:41:00 | 73 | 0 | 22.5 | 23.73 | 12.5 | |||||||||||||||
| 04/12/2026 | 102 | 87 | 14:40:01 | 59 | 5:17:05 | 66 | 84 | 5:24:03 | 32 | 12:34:01 | 71 | 0 | 23 | 24.27 | 13 | |||||||||||||||
| 04/13/2026 | 103 | 85 | 12:42:00 | 70 | 5:34:00 | 71 | 76 | 6:37:00 | 49 | 17:18:05 | 75 | 0 | 27.5 | 27.3 | 17.5 | |||||||||||||||
| 04/14/2026 | 104 | 88 | 15:27:02 | 66 | 5:40:00 | 70 | 82 | 5:43:01 | 39 | 15:22:04 | 77 | 0 | 27 | 27.33 | 17 | |||||||||||||||
| 04/15/2026 | 105 | 90 | 13:48:02 | 66 | 5:59:04 | 69 | 80 | 6:00:00 | 34 | 13:48:03 | 73 | 0 | 28 | 27.36 | 18 | |||||||||||||||
| 04/16/2026 | 106 | 89 | 15:24:05 | 67 | 5:24:00 | 71 | 82 | 5:28:05 | 40 | 12:41:03 | 76 | 0 | 28 | 27.39 | 18 | |||||||||||||||
| 04/17/2026 | 107 | 91 | 14:51:05 | 67 | 5:05:04 | 71 | 84 | 5:28:02 | 39 | 14:02:00 | 77 | 0 | 29 | 27.41 | 19 | |||||||||||||||
| 04/18/2026 | 108 | 78 | 9:32:04 | 52 | 21:44:05 | 71 | 91 | 15:56:03 | 63 | 9:21:03 | 76 | 0.04 | 15 | 16.44 | 5 | |||||||||||||||
| 04/19/2026 | 109 | 73 | 14:32:02 | 45 | 23:59:02 | 50 | 93 | 2:05:02 | 25 | 15:04:00 | 84 | 0 | 9 | 10.47 | 0 | |||||||||||||||
| 04/20/2026 | 110 | 79 | 15:45:01 | 41 | 5:49:02 | 55 | 88 | 5:13:03 | 21 | 16:43:02 | 72 | 0 | 10 | 11.5 | 0 | |||||||||||||||
| 04/21/2026 | 111 | 85 | 14:23:03 | 46 | 5:35:05 | 58 | 85 | 5:56:05 | 17 | 14:29:03 | 69 | 0 | 15.5 | 17.03 | 5.5 | |||||||||||||||
| 04/22/2026 | 112 | 85 | 15:17:03 | 57 | 1:18:00 | 67 | 74 | 2:59:04 | 24 | 15:04:02 | 62 | 0 | 21 | 22.56 | 11 | |||||||||||||||
| 04/23/2026 | 113 | 88 | 15:56:03 | 66 | 5:55:04 | 68 | 79 | 6:07:04 | 31 | 14:44:05 | 77 | 0 | 27 | 27.58 | 17 | |||||||||||||||
| 04/24/2026 | 114 | 82 | 11:32:02 | 62 | 13:02:01 | 69 | 93 | 23:22:00 | 52 | 11:09:01 | 79 | 2.01 | 22 | 23.61 | 12 | |||||||||||||||
| 04/25/2026 | 115 | 79 | 16:49:00 | 61 | 4:23:03 | 64 | 95 | 5:10:03 | 57 | 16:50:00 | 92 | 0.32 | 20 | 21.64 | 10 | |||||||||||||||
| 04/26/2026 | 116 | 84 | 14:26:05 | 67 | 4:57:01 | 70 | 94 | 5:07:03 | 53 | 13:18:02 | 86 | 0.28 | 25.5 | 27.16 | 15.5 | |||||||||||||||
| 04/27/2026 | 117 | 84 | 14:41:04 | 71 | 4:49:05 | 73 | 91 | 5:09:00 | 66 | 14:32:02 | 88 | 0 | 27.5 | 27.69 | 17.5 | |||||||||||||||
| 04/28/2026 | 118 | 80 | 12:28:05 | 67 | 21:22:03 | 73 | 91 | 21:12:00 | 66 | 21:48:01 | 84 | 0.38 | 23.5 | 25.21 | 13.5 | |||||||||||||||
| 04/29/2026 | 119 | 72 | 12:13:03 | 63 | 23:30:04 | 72 | 94 | 4:20:04 | 72 | 13:10:04 | 90 | 0.01 | 17.5 | 19.24 | 7.5 | |||||||||||||||
| 04/30/2026 | 120 | 68 | 12:43:05 | 59 | 6:52:05 | 59 | 88 | 2:26:02 | 55 | 14:21:03 | 75 | 0.07 | 13.5 | 15.26 | 3.5 | |||||||||||||||
| 05/01/2026 | 121 | 64 | 14:51:05 | 56 | 4:37:03 | 57 | 86 | 19:06:02 | 53 | 14:26:01 | 75 | 0 | 10 | 11.78 | 0 | |||||||||||||||
| Average | 81.1 | 58.9 | 64.7 | 85.27 | 42.03 | 75.83 | 0.1 | 0 | 0 | 0 | 0 | 0 | 0 | 0 | 0 | 20 | 20.87 | 10.15 | ||||||||||||
| Total | 3.12 | 600 | 626.14 | 304.5 |